createdAt,value
2023-04-27T00:01:13.930Z,100708.98
2023-04-27T00:03:43.247Z,100709.30
2023-04-27T00:06:12.393Z,100710.95
2023-04-27T00:08:41.252Z,100711.80
2023-04-27T00:11:09.934Z,100715.16
2023-04-27T00:13:38.616Z,100714.75
2023-04-27T00:16:07.382Z,100712.20
2023-04-27T00:18:36.911Z,100714.94
2023-04-27T00:21:05.745Z,100715.36
2023-04-27T00:23:34.446Z,100715.52
2023-04-27T00:26:03.246Z,100720.98
2023-04-27T00:28:32.148Z,100723.71
2023-04-27T00:31:03.670Z,100720.44
2023-04-27T00:33:32.464Z,100712.94
2023-04-27T00:36:02.287Z,100714.68
2023-04-27T00:38:31.388Z,100711.64
2023-04-27T00:41:08.107Z,100714.55
2023-04-27T00:43:46.715Z,100715.23
2023-04-27T00:46:19.933Z,100719.41
2023-04-27T00:48:48.870Z,100716.98
2023-04-27T00:51:17.538Z,100713.28
2023-04-27T00:53:46.540Z,100715.70
2023-04-27T00:56:17.000Z,100717.36
2023-04-27T00:58:45.792Z,100717.68
2023-04-27T01:01:14.650Z,100719.27
2023-04-27T01:03:43.498Z,100720.56
2023-04-27T01:06:12.314Z,100723.14
2023-04-27T01:08:41.407Z,100725.66
2023-04-27T01:11:10.102Z,100728.40
2023-04-27T01:13:41.083Z,100735.64
2023-04-27T01:16:09.760Z,100737.36
2023-04-27T01:18:43.158Z,100740.43
2023-04-27T01:21:11.917Z,100747.21
2023-04-27T01:23:40.602Z,100752.30
2023-04-27T01:26:12.090Z,100755.13
2023-04-27T01:28:40.773Z,100758.27
2023-04-27T01:31:11.702Z,100759.24
2023-04-27T01:33:41.024Z,100760.64
2023-04-27T01:36:10.234Z,100758.12
2023-04-27T01:38:38.925Z,100759.34
2023-04-27T01:41:09.661Z,100760.77
2023-04-27T01:43:38.530Z,100757.73
2023-04-27T01:46:13.265Z,100759.48
2023-04-27T01:48:42.195Z,100759.22
2023-04-27T01:51:12.754Z,100762.15
2023-04-27T01:53:42.712Z,100760.88
2023-04-27T01:56:11.424Z,100761.19
2023-04-27T01:58:40.102Z,100765.14
2023-04-27T02:01:08.834Z,100765.11
2023-04-27T02:03:37.627Z,100765.86
2023-04-27T02:06:07.805Z,100762.39
2023-04-27T02:08:36.641Z,100767.31
2023-04-27T02:11:05.422Z,100765.77
2023-04-27T02:13:34.047Z,100770.28
2023-04-27T02:16:05.230Z,100769.35
2023-04-27T02:18:34.048Z,100769.99
2023-04-27T02:21:08.832Z,100768.83
2023-04-27T02:23:38.320Z,100776.44
2023-04-27T02:26:07.068Z,100781.20
2023-04-27T02:28:39.358Z,100781.96
2023-04-27T02:31:08.519Z,100789.39
2023-04-27T02:33:37.214Z,100789.77
2023-04-27T02:36:06.509Z,100788.51
2023-04-27T02:38:35.641Z,100792.30
2023-04-27T02:41:04.823Z,100796.62
2023-04-27T02:43:35.787Z,100796.70
2023-04-27T02:46:07.034Z,100795.20
2023-04-27T02:48:35.729Z,100800.46
2023-04-27T02:51:07.084Z,100798.50
2023-04-27T02:53:36.528Z,100797.27
2023-04-27T02:56:06.191Z,100800.92
2023-04-27T02:58:34.964Z,100805.10
2023-04-27T03:01:03.718Z,100810.05
2023-04-27T03:03:32.567Z,100813.36
2023-04-27T03:06:01.372Z,100816.55
2023-04-27T03:08:30.125Z,100823.45
2023-04-27T03:10:59.832Z,100826.31
2023-04-27T03:13:28.515Z,100829.46
2023-04-27T03:15:57.408Z,100835.41
2023-04-27T03:18:26.093Z,100840.69
2023-04-27T03:20:54.789Z,100838.75
2023-04-27T03:23:23.481Z,100841.70
2023-04-27T03:25:54.069Z,100841.23
2023-04-27T03:28:22.795Z,100846.54
2023-04-27T03:30:51.502Z,100847.98
2023-04-27T03:33:20.226Z,100847.84
2023-04-27T03:35:57.271Z,100849.75
2023-04-27T03:38:27.026Z,100848.88
2023-04-27T03:40:55.708Z,100847.80
2023-04-27T03:43:26.438Z,100853.71
2023-04-27T03:45:55.244Z,100859.66
2023-04-27T03:48:24.025Z,100858.70
2023-04-27T03:50:53.508Z,100852.76
2023-04-27T03:53:22.723Z,100852.32
2023-04-27T03:55:51.694Z,100854.54
2023-04-27T03:58:20.426Z,100863.20
2023-04-27T04:01:10.352Z,100865.42
2023-04-27T04:03:39.514Z,100867.06
2023-04-27T04:06:09.140Z,100869.86
2023-04-27T04:08:37.940Z,100867.23
2023-04-27T04:11:06.777Z,100866.33
2023-04-27T04:13:36.193Z,100866.88
2023-04-27T04:16:07.827Z,100864.96
2023-04-27T04:18:37.221Z,100867.40
2023-04-27T04:21:06.550Z,100871.50
2023-04-27T04:23:36.055Z,100875.25
2023-04-27T04:26:05.136Z,100881.80
2023-04-27T04:28:37.319Z,100883.48
2023-04-27T04:31:06.755Z,100885.20
2023-04-27T04:33:35.764Z,100883.34
2023-04-27T04:36:05.340Z,100885.14
2023-04-27T04:38:34.112Z,100884.49
2023-04-27T04:41:02.861Z,100884.30
2023-04-27T04:43:33.726Z,100888.04
2023-04-27T04:46:05.491Z,100893.11
2023-04-27T04:48:36.230Z,100892.74
2023-04-27T04:51:08.190Z,100894.30
2023-04-27T04:53:37.346Z,100892.27
2023-04-27T04:56:13.343Z,100900.55
2023-04-27T04:58:42.067Z,100906.60
2023-04-27T05:01:11.827Z,100905.59
2023-04-27T05:03:40.973Z,100901.69
2023-04-27T05:06:09.816Z,100897.31
2023-04-27T05:08:38.536Z,100896.99
2023-04-27T05:11:07.188Z,100896.88
2023-04-27T05:13:35.864Z,100895.87
2023-04-27T05:16:06.355Z,100901.06
2023-04-27T05:18:36.149Z,100906.88
2023-04-27T05:21:05.327Z,100900.94
2023-04-27T05:23:34.011Z,100903.84
2023-04-27T05:26:11.742Z,100909.53
2023-04-27T05:28:40.473Z,100903.48
2023-04-27T05:31:09.393Z,100911.89
2023-04-27T05:33:38.122Z,100908.19
2023-04-27T05:36:07.070Z,100908.98
2023-04-27T05:38:37.671Z,100905.98
2023-04-27T05:41:06.779Z,100906.38
2023-04-27T05:43:37.282Z,100889.66
2023-04-27T05:46:06.169Z,100895.43
2023-04-27T05:48:34.935Z,100891.40
2023-04-27T05:51:04.846Z,100892.81
2023-04-27T05:53:35.609Z,100893.39
2023-04-27T05:56:07.065Z,100881.97
2023-04-27T05:58:36.333Z,100887.02
2023-04-27T06:01:05.276Z,100886.74
2023-04-27T06:03:34.190Z,100890.94
2023-04-27T06:06:03.185Z,100892.77
2023-04-27T06:08:32.021Z,100896.98
2023-04-27T06:11:00.760Z,100891.10
2023-04-27T06:13:30.994Z,100896.74
2023-04-27T06:16:01.451Z,100895.96
2023-04-27T06:18:30.750Z,100890.33
2023-04-27T06:21:03.331Z,100901.00
2023-04-27T06:23:32.225Z,100898.13
2023-04-27T06:26:02.460Z,100904.13
2023-04-27T06:28:31.600Z,100904.23
2023-04-27T06:31:00.342Z,100907.64
2023-04-27T06:33:29.298Z,100906.14
2023-04-27T06:35:58.720Z,100907.99
2023-04-27T06:38:27.482Z,100892.09
2023-04-27T06:40:56.603Z,100895.33
2023-04-27T06:43:25.936Z,100896.68
2023-04-27T06:45:54.644Z,100904.85
2023-04-27T06:48:23.410Z,100898.11
2023-04-27T06:50:52.207Z,100908.84
2023-04-27T06:53:20.913Z,100903.35
2023-04-27T06:55:51.164Z,100904.13
2023-04-27T06:58:19.955Z,100888.35
2023-04-27T07:00:48.648Z,100886.65
2023-04-27T07:03:17.653Z,100896.80
2023-04-27T07:05:46.812Z,100895.61
2023-04-27T07:08:15.566Z,100901.27
2023-04-27T07:10:44.199Z,100878.42
2023-04-27T07:13:14.374Z,100887.70
2023-04-27T07:15:43.216Z,100881.73
2023-04-27T07:18:12.363Z,100885.02
2023-04-27T07:20:41.768Z,100892.44
2023-04-27T07:23:10.932Z,100893.70
2023-04-27T07:25:40.491Z,100895.46
2023-04-27T07:28:10.056Z,100890.14
2023-04-27T07:30:39.496Z,100896.96
2023-04-27T07:33:08.431Z,100891.31
2023-04-27T07:35:37.792Z,100890.23
2023-04-27T07:38:07.027Z,100887.35
2023-04-27T07:40:36.591Z,100893.91
2023-04-27T07:43:05.698Z,100904.12
2023-04-27T07:45:34.694Z,100896.48
2023-04-27T07:48:04.629Z,100898.75
2023-04-27T07:50:33.426Z,100906.30
2023-04-27T07:53:02.307Z,100907.58
2023-04-27T07:55:30.987Z,100904.54
2023-04-27T07:57:59.717Z,100905.64
2023-04-27T08:00:28.503Z,100908.67
2023-04-27T08:02:57.549Z,100905.52
2023-04-27T08:05:26.844Z,100911.45
2023-04-27T08:07:56.435Z,100913.23
2023-04-27T08:10:25.315Z,100910.80
2023-04-27T08:12:54.495Z,100914.28
2023-04-27T08:15:23.394Z,100915.06
2023-04-27T08:17:52.446Z,100914.50
2023-04-27T08:20:21.695Z,100924.25
2023-04-27T08:22:52.112Z,100916.89
2023-04-27T08:25:20.848Z,100920.78
2023-04-27T08:27:49.564Z,100924.61
2023-04-27T08:30:18.665Z,100928.95
2023-04-27T08:32:48.327Z,100922.30
2023-04-27T08:35:18.001Z,100914.39
2023-04-27T08:37:46.801Z,100914.49
2023-04-27T08:40:15.794Z,100919.27
2023-04-27T08:42:56.499Z,100910.56
2023-04-27T08:45:27.184Z,100919.00
2023-04-27T08:47:56.025Z,100919.20
2023-04-27T08:50:24.962Z,100907.91
2023-04-27T08:52:53.993Z,100902.20
2023-04-27T08:55:23.652Z,100905.94
2023-04-27T08:58:00.532Z,100914.55
2023-04-27T09:00:42.565Z,100916.13
2023-04-27T09:03:27.579Z,100913.71
2023-04-27T09:06:05.084Z,100906.60
2023-04-27T09:08:49.109Z,100913.36
2023-04-27T09:11:39.179Z,100921.59
2023-04-27T09:14:23.344Z,100917.43
2023-04-27T09:17:00.238Z,100921.90
2023-04-27T09:19:30.751Z,100911.11
2023-04-27T09:22:11.669Z,100913.59
2023-04-27T09:24:53.236Z,100920.36
2023-04-27T09:27:22.304Z,100918.31
2023-04-27T09:29:52.158Z,100914.48
2023-04-27T09:32:21.422Z,100912.20
2023-04-27T09:34:50.124Z,100926.98
2023-04-27T09:37:19.690Z,100913.94
2023-04-27T09:39:50.036Z,100914.48
2023-04-27T09:42:18.965Z,100906.36
2023-04-27T09:44:48.240Z,100904.08
2023-04-27T09:47:17.112Z,100912.39
2023-04-27T09:49:46.164Z,100915.96
2023-04-27T09:52:14.981Z,100916.96
2023-04-27T09:54:44.066Z,100921.95
2023-04-27T09:57:55.868Z,100926.98
2023-04-27T10:00:39.638Z,100927.70
2023-04-27T10:03:53.707Z,100920.59
2023-04-27T10:06:48.289Z,100926.55
2023-04-27T10:09:23.785Z,100917.59
2023-04-27T10:11:55.744Z,100918.33
2023-04-27T10:14:25.134Z,100923.53
2023-04-27T10:17:00.233Z,100919.30
2023-04-27T10:19:28.993Z,100916.35
2023-04-27T10:22:07.886Z,100919.99
2023-04-27T10:24:40.317Z,100915.68
2023-04-27T10:27:14.108Z,100921.23
2023-04-27T10:29:46.304Z,100924.73
2023-04-27T10:32:26.947Z,100932.65
2023-04-27T10:35:07.767Z,100919.45
2023-04-27T10:37:43.824Z,100926.33
2023-04-27T10:40:17.942Z,100931.34
2023-04-27T10:42:49.707Z,100933.53
2023-04-27T10:45:31.510Z,100921.95
2023-04-27T10:48:01.878Z,100935.55
2023-04-27T10:50:31.535Z,100932.44
2023-04-27T10:53:02.930Z,100937.57
2023-04-27T10:55:32.736Z,100937.33
2023-04-27T10:58:02.398Z,100930.76
2023-04-27T11:00:44.897Z,100937.73
2023-04-27T11:03:21.111Z,100925.73
2023-04-27T11:06:00.555Z,100921.80
2023-04-27T11:08:30.881Z,100931.34
2023-04-27T11:11:00.067Z,100932.00
2023-04-27T11:13:28.988Z,100931.48
2023-04-27T11:16:00.150Z,100931.68
2023-04-27T11:18:33.917Z,100937.10
2023-04-27T11:21:16.136Z,100938.36
2023-04-27T11:23:44.978Z,100953.81
2023-04-27T11:26:22.148Z,100946.87
2023-04-27T11:29:05.965Z,100956.90
2023-04-27T11:31:49.715Z,100959.22
2023-04-27T11:34:22.618Z,100951.27
2023-04-27T11:37:17.480Z,100951.05
2023-04-27T11:39:47.262Z,100949.09
2023-04-27T11:42:25.734Z,100948.85
2023-04-27T11:45:03.473Z,100942.91
2023-04-27T11:47:34.188Z,100942.66
2023-04-27T11:50:07.033Z,100943.11
2023-04-27T11:52:38.331Z,100949.09
2023-04-27T11:55:09.238Z,100947.96
2023-04-27T11:57:39.533Z,100952.60
2023-04-27T12:00:12.669Z,100948.08
2023-04-27T12:02:44.985Z,100955.30
2023-04-27T12:05:14.757Z,100949.81
2023-04-27T12:07:43.669Z,100945.41
2023-04-27T12:10:13.081Z,100947.58
2023-04-27T12:12:41.916Z,100953.48
2023-04-27T12:15:11.333Z,100952.80
2023-04-27T12:17:40.654Z,100944.18
2023-04-27T12:20:10.244Z,100954.39
2023-04-27T12:22:39.102Z,100946.01
2023-04-27T12:25:08.329Z,100955.53
2023-04-27T12:27:37.515Z,100949.68
2023-04-27T12:30:07.992Z,100939.59
2023-04-27T12:32:37.541Z,100930.63
2023-04-27T12:35:08.241Z,100935.71
2023-04-27T12:37:37.324Z,100934.83
2023-04-27T12:40:07.284Z,100943.21
2023-04-27T12:42:36.379Z,100935.70
2023-04-27T12:45:05.778Z,100945.08
2023-04-27T12:50:07.627Z,100949.33
2023-04-27T12:52:36.397Z,100953.55
2023-04-27T12:55:06.237Z,100943.76
2023-04-27T12:57:35.384Z,100945.60
2023-04-27T13:00:06.625Z,100940.05
2023-04-27T13:02:35.447Z,100952.55
2023-04-27T13:05:05.240Z,100949.01
2023-04-27T13:07:34.384Z,100943.80
2023-04-27T13:10:03.440Z,100943.16
2023-04-27T13:12:32.812Z,100946.51
2023-04-27T13:15:01.470Z,100946.43
2023-04-27T13:17:30.245Z,100950.08
2023-04-27T13:19:58.998Z,100952.52
2023-04-27T13:22:28.469Z,100947.07
2023-04-27T13:24:57.254Z,100949.73
2023-04-27T13:27:28.594Z,100952.25
2023-04-27T13:29:57.273Z,100953.38
2023-04-27T13:32:26.940Z,100957.62
2023-04-27T13:34:55.681Z,100957.27
2023-04-27T13:37:24.412Z,100963.28
2023-04-27T13:39:53.148Z,100962.19
2023-04-27T13:42:22.415Z,100965.09
2023-04-27T13:44:51.099Z,100983.69
2023-04-27T13:47:20.146Z,100974.66
2023-04-27T13:49:48.783Z,100975.68
2023-04-27T13:52:17.596Z,100972.76
2023-04-27T13:54:46.342Z,100976.63
2023-04-27T13:57:15.093Z,100976.64
2023-04-27T13:59:43.803Z,100979.61
2023-04-27T14:02:12.640Z,100979.17
2023-04-27T14:04:41.674Z,100978.14
2023-04-27T14:07:10.620Z,100975.79
2023-04-27T14:09:39.328Z,100986.64
2023-04-27T14:12:09.053Z,100982.66
2023-04-27T14:14:38.151Z,100979.70
2023-04-27T14:17:07.136Z,100980.63
2023-04-27T14:19:35.893Z,100992.95
2023-04-27T14:22:06.501Z,100996.48
2023-04-27T14:24:35.204Z,100997.83
2023-04-27T14:27:04.036Z,100995.27
2023-04-27T14:29:32.749Z,100992.91
2023-04-27T14:32:01.540Z,101004.23
2023-04-27T14:34:30.288Z,100989.98
2023-04-27T14:36:59.003Z,100994.20
2023-04-27T14:39:28.355Z,100998.94
2023-04-27T14:41:57.383Z,101003.23
2023-04-27T14:44:26.360Z,101032.52
2023-04-27T14:46:55.041Z,101023.21
2023-04-27T14:49:24.098Z,101022.48
2023-04-27T14:51:52.792Z,101019.55
2023-04-27T14:54:21.580Z,101029.45
2023-04-27T14:56:50.299Z,101027.85
2023-04-27T14:59:19.078Z,101031.77
2023-04-27T15:01:47.923Z,101028.50
2023-04-27T15:04:16.940Z,101027.39
2023-04-27T15:06:46.136Z,101029.20
2023-04-27T15:09:15.088Z,101032.86
2023-04-27T15:11:44.063Z,101034.88
2023-04-27T15:14:12.756Z,101031.42
2023-04-27T15:16:41.561Z,101028.82
2023-04-27T15:19:10.234Z,101027.25
2023-04-27T15:21:38.931Z,101035.61
2023-04-27T15:24:07.680Z,101033.54
2023-04-27T15:26:36.633Z,101029.44
2023-04-27T15:29:05.719Z,101037.83
2023-04-27T15:31:34.676Z,101035.50
2023-04-27T15:34:03.533Z,101032.25
2023-04-27T15:36:32.549Z,101030.59
2023-04-27T15:39:01.318Z,101040.04
2023-04-27T15:41:30.037Z,101033.60
2023-04-27T15:43:58.820Z,101037.35
2023-04-27T15:46:28.063Z,101038.91
2023-04-27T15:48:57.115Z,101044.31
2023-04-27T15:51:26.911Z,101053.83
2023-04-27T15:53:55.610Z,101056.14
2023-04-27T15:56:25.343Z,101057.80
2023-04-27T15:58:54.213Z,101065.05
2023-04-27T16:01:23.048Z,101064.67
2023-04-27T16:03:52.236Z,101063.00
2023-04-27T16:06:21.613Z,101055.60
2023-04-27T16:08:50.353Z,101058.85
2023-04-27T16:11:19.465Z,101063.99
2023-04-27T16:13:48.391Z,101065.79
2023-04-27T16:16:17.421Z,101066.98
2023-04-27T16:18:46.785Z,101065.05
2023-04-27T16:21:15.719Z,101066.92
2023-04-27T16:23:44.726Z,101073.29
2023-04-27T16:26:13.589Z,101071.99
2023-04-27T16:28:42.857Z,101073.63
2023-04-27T16:31:13.593Z,101076.79
2023-04-27T16:33:42.340Z,101074.73
2023-04-27T16:36:11.631Z,101079.05
2023-04-27T16:38:40.437Z,101081.61
2023-04-27T16:41:09.249Z,101077.46
2023-04-27T16:43:37.973Z,101085.57
2023-04-27T16:46:08.465Z,101085.44
2023-04-27T16:48:37.316Z,101088.77
2023-04-27T16:51:06.721Z,101099.22
2023-04-27T16:53:36.059Z,101098.10
2023-04-27T16:56:05.374Z,101101.50
2023-04-27T16:58:36.273Z,101109.48
2023-04-27T17:01:05.131Z,101110.88
2023-04-27T17:03:36.157Z,101114.75
2023-04-27T17:06:05.043Z,101116.45
2023-04-27T17:08:33.711Z,101117.45
2023-04-27T17:11:02.402Z,101120.40
2023-04-27T17:13:31.981Z,101114.84
2023-04-27T17:16:01.022Z,101123.02
2023-04-27T17:18:30.017Z,101127.29
2023-04-27T17:21:01.793Z,101127.05
2023-04-27T17:23:33.923Z,101131.33
2023-04-27T17:26:03.446Z,101137.78
2023-04-27T17:28:32.365Z,101139.02
2023-04-27T17:31:02.061Z,101148.52
2023-04-27T17:33:30.808Z,101147.77
2023-04-27T17:35:59.622Z,101150.19
2023-04-27T17:38:28.395Z,101149.96
2023-04-27T17:40:57.108Z,101149.79
2023-04-27T17:43:25.834Z,101154.08
2023-04-27T17:45:54.725Z,101155.16
2023-04-27T17:48:23.709Z,101156.98
2023-04-27T17:50:53.408Z,101164.84
2023-04-27T17:53:22.101Z,101164.28
2023-04-27T17:55:52.072Z,101166.23
2023-04-27T17:58:21.393Z,101166.42
2023-04-27T18:00:51.824Z,101167.87
2023-04-27T18:03:20.703Z,101168.50
2023-04-27T18:05:49.712Z,101172.15
2023-04-27T18:08:18.472Z,101170.69
2023-04-27T18:10:47.239Z,101168.43
2023-04-27T18:13:16.018Z,101174.07
2023-04-27T18:15:46.075Z,101176.56
2023-04-27T18:18:19.238Z,101182.70
2023-04-27T18:20:50.999Z,101184.33
2023-04-27T18:23:20.466Z,101180.15
2023-04-27T18:25:49.635Z,101181.10
2023-04-27T18:28:26.202Z,101180.31
2023-04-27T18:30:54.927Z,101181.08
2023-04-27T18:33:23.700Z,101183.09
2023-04-27T18:35:52.497Z,101185.00
2023-04-27T18:38:21.447Z,101180.97
2023-04-27T18:40:50.324Z,101179.27
2023-04-27T18:43:19.119Z,101188.41
2023-04-27T18:45:47.874Z,101185.23
2023-04-27T18:48:16.588Z,101188.77
2023-04-27T18:50:45.514Z,101190.92
2023-04-27T18:53:14.318Z,101192.70
2023-04-27T18:56:15.344Z,101196.83
2023-04-27T18:58:44.557Z,101197.69
2023-04-27T19:01:27.831Z,101199.07
2023-04-27T19:03:57.067Z,101201.02
2023-04-27T19:06:26.516Z,101205.64
2023-04-27T19:08:55.943Z,101209.10
2023-04-27T19:11:25.673Z,101204.83
2023-04-27T19:13:54.896Z,101209.96
2023-04-27T19:16:24.563Z,101208.70
2023-04-27T19:18:53.596Z,101212.77
2023-04-27T19:22:00.876Z,101207.52
2023-04-27T19:24:29.640Z,101208.14
2023-04-27T19:26:58.630Z,101209.67
2023-04-27T19:29:28.227Z,101210.39
2023-04-27T19:31:57.304Z,101210.98
2023-04-27T19:34:26.078Z,101211.59
2023-04-27T19:36:54.803Z,101209.19
2023-04-27T19:39:23.851Z,101211.45
2023-04-27T19:41:53.019Z,101212.89
2023-04-27T19:45:25.783Z,101212.25
2023-04-27T19:47:54.621Z,101215.59
2023-04-27T19:50:23.476Z,101214.97
2023-04-27T19:52:52.259Z,101215.79
2023-04-27T19:55:21.013Z,101214.29
2023-04-27T19:57:49.769Z,101217.80
2023-04-27T20:00:18.586Z,101217.75
2023-04-27T20:02:47.358Z,101218.92
2023-04-27T20:05:16.670Z,101221.02
2023-04-27T20:07:45.951Z,101216.70
2023-04-27T20:10:14.614Z,101226.09
2023-04-27T20:12:55.381Z,101223.83
2023-04-27T20:15:25.929Z,101221.81
2023-04-27T20:17:55.211Z,101225.31
2023-04-27T20:20:24.021Z,101226.36
2023-04-27T20:22:52.751Z,101224.45
2023-04-27T20:25:21.394Z,101222.91
2023-04-27T20:27:50.056Z,101221.09
2023-04-27T20:30:18.762Z,101219.83
2023-04-27T20:32:47.541Z,101222.41
2023-04-27T20:35:16.304Z,101219.20
2023-04-27T20:37:45.000Z,101221.63
2023-04-27T20:40:18.181Z,101220.27
2023-04-27T20:42:49.535Z,101221.00
2023-04-27T20:45:18.975Z,101223.00
2023-04-27T20:47:47.691Z,101223.33
2023-04-27T20:50:16.665Z,101222.66
2023-04-27T20:52:45.373Z,101225.45
2023-04-27T20:55:14.288Z,101231.37
2023-04-27T20:57:43.096Z,101229.09
2023-04-27T21:00:13.122Z,101234.12
2023-04-27T21:02:42.212Z,101232.58
2023-04-27T21:05:10.942Z,101235.27
2023-04-27T21:07:39.587Z,101233.43
2023-04-27T21:10:08.773Z,101234.56
2023-04-27T21:12:37.472Z,101233.08
2023-04-27T21:15:07.194Z,101236.91
2023-04-27T21:17:36.080Z,101235.05
2023-04-27T21:20:05.291Z,101238.41
2023-04-27T21:22:33.974Z,101240.89
2023-04-27T21:25:02.883Z,101244.56
2023-04-27T21:27:31.782Z,101243.39
2023-04-27T21:30:00.574Z,101245.20
2023-04-27T21:32:29.295Z,101251.98
2023-04-27T21:34:58.114Z,101257.91
2023-04-27T21:37:27.113Z,101260.27
2023-04-27T21:39:55.913Z,101261.59
2023-04-27T21:42:24.621Z,101262.85
2023-04-27T21:44:53.309Z,101260.23
2023-04-27T21:47:21.986Z,101257.21
2023-04-27T21:49:52.459Z,101259.94
2023-04-27T21:52:21.849Z,101257.35
2023-04-27T21:54:50.680Z,101256.73
2023-04-27T21:57:20.229Z,101260.49
2023-04-27T21:59:49.031Z,101254.96
2023-04-27T22:02:17.737Z,101254.52
2023-04-27T22:04:46.669Z,101257.30
2023-04-27T22:07:15.528Z,101258.99
2023-04-27T22:09:44.380Z,101262.70
2023-04-27T22:12:13.104Z,101264.40
2023-04-27T22:14:43.026Z,101259.75
2023-04-27T22:17:12.669Z,101255.63
2023-04-27T22:19:41.701Z,101253.09
2023-04-27T22:22:10.886Z,101253.02
2023-04-27T22:24:39.514Z,101254.38
2023-04-27T22:27:08.166Z,101255.70
2023-04-27T22:29:36.817Z,101255.09
2023-04-27T22:32:07.011Z,101259.48
2023-04-27T22:34:37.458Z,101257.44
2023-04-27T22:37:06.195Z,101258.88
2023-04-27T22:39:34.983Z,101260.13
2023-04-27T22:42:03.854Z,101264.52
2023-04-27T22:44:32.526Z,101261.30
2023-04-27T22:47:02.638Z,101255.20
2023-04-27T22:49:32.570Z,101252.57
2023-04-27T22:52:02.030Z,101256.28
2023-04-27T22:54:31.987Z,101262.31
2023-04-27T22:57:02.445Z,101261.63
2023-04-27T22:59:31.652Z,101256.63
2023-04-27T23:02:01.277Z,101260.77
2023-04-27T23:04:30.355Z,101263.55
2023-04-27T23:06:59.127Z,101268.05
2023-04-27T23:09:28.612Z,101269.16
2023-04-27T23:11:59.211Z,101266.06
2023-04-27T23:14:30.663Z,101266.74
2023-04-27T23:17:01.957Z,101266.83
2023-04-27T23:19:30.762Z,101264.17
2023-04-27T23:22:01.927Z,101266.27
2023-04-27T23:24:31.662Z,101262.15
2023-04-27T23:27:01.401Z,101263.42
2023-04-27T23:29:31.688Z,101264.52
2023-04-27T23:32:04.715Z,101261.31
2023-04-27T23:34:33.750Z,101259.09
2023-04-27T23:37:02.885Z,101258.91
2023-04-27T23:39:31.939Z,101257.35
2023-04-27T23:42:01.334Z,101260.15
2023-04-27T23:44:30.537Z,101262.02
2023-04-27T23:46:59.435Z,101257.69
2023-04-27T23:49:28.103Z,101261.84
2023-04-27T23:51:56.838Z,101257.31
2023-04-27T23:54:26.271Z,101261.48
2023-04-27T23:56:54.970Z,101260.46
2023-04-27T23:59:23.715Z,101264.33
